sensor_id;sensor_type;location;lat;lon;timestamp;P1;durP1;ratioP1;P2;durP2;ratioP2
39846;SDS011;25517;52.422;10.782;2023-07-29T00:00:37;9.68;;;7.70;;
39846;SDS011;25517;52.422;10.782;2023-07-29T00:03:04;12.27;;;7.85;;
39846;SDS011;25517;52.422;10.782;2023-07-29T00:05:30;9.80;;;7.88;;
39846;SDS011;25517;52.422;10.782;2023-07-29T00:07:55;11.75;;;8.20;;
39846;SDS011;25517;52.422;10.782;2023-07-29T00:10:21;12.00;;;7.65;;
39846;SDS011;25517;52.422;10.782;2023-07-29T00:12:47;10.43;;;7.15;;
39846;SDS011;25517;52.422;10.782;2023-07-29T00:15:13;7.85;;;6.65;;
39846;SDS011;25517;52.422;10.782;2023-07-29T00:17:38;8.25;;;6.85;;
39846;SDS011;25517;52.422;10.782;2023-07-29T00:20:05;8.43;;;6.97;;
39846;SDS011;25517;52.422;10.782;2023-07-29T00:22:31;7.70;;;6.90;;
39846;SDS011;25517;52.422;10.782;2023-07-29T00:24:56;8.55;;;6.88;;
39846;SDS011;25517;52.422;10.782;2023-07-29T00:27:22;8.95;;;7.18;;
39846;SDS011;25517;52.422;10.782;2023-07-29T00:29:48;8.48;;;6.13;;
39846;SDS011;25517;52.422;10.782;2023-07-29T00:32:14;7.40;;;6.70;;
39846;SDS011;25517;52.422;10.782;2023-07-29T00:34:40;6.85;;;6.10;;
39846;SDS011;25517;52.422;10.782;2023-07-29T00:37:05;8.32;;;6.20;;
39846;SDS011;25517;52.422;10.782;2023-07-29T00:39:34;8.38;;;6.72;;
39846;SDS011;25517;52.422;10.782;2023-07-29T00:41:59;7.05;;;6.32;;
39846;SDS011;25517;52.422;10.782;2023-07-29T00:44:25;8.60;;;6.30;;
39846;SDS011;25517;52.422;10.782;2023-07-29T00:46:54;10.00;;;6.60;;
39846;SDS011;25517;52.422;10.782;2023-07-29T00:49:20;7.50;;;6.40;;
39846;SDS011;25517;52.422;10.782;2023-07-29T00:51:46;9.82;;;6.55;;
39846;SDS011;25517;52.422;10.782;2023-07-29T00:54:12;6.80;;;6.10;;
39846;SDS011;25517;52.422;10.782;2023-07-29T00:56:38;10.63;;;6.28;;
39846;SDS011;25517;52.422;10.782;2023-07-29T00:59:05;9.05;;;5.72;;
39846;SDS011;25517;52.422;10.782;2023-07-29T01:01:31;5.45;;;4.80;;
39846;SDS011;25517;52.422;10.782;2023-07-29T01:03:57;8.90;;;5.25;;
39846;SDS011;25517;52.422;10.782;2023-07-29T01:11:59;7.70;;;4.78;;
39846;SDS011;25517;52.422;10.782;2023-07-29T01:14:34;5.82;;;4.60;;
39846;SDS011;25517;52.422;10.782;2023-07-29T01:17:13;4.85;;;4.43;;
39846;SDS011;25517;52.422;10.782;2023-07-29T01:19:48;5.53;;;4.93;;
39846;SDS011;25517;52.422;10.782;2023-07-29T01:22:34;4.93;;;4.43;;
39846;SDS011;25517;52.422;10.782;2023-07-29T01:25:00;7.20;;;4.68;;
39846;SDS011;25517;52.422;10.782;2023-07-29T01:27:26;5.90;;;4.50;;
39846;SDS011;25517;52.422;10.782;2023-07-29T01:29:52;7.13;;;4.70;;
39846;SDS011;25517;52.422;10.782;2023-07-29T01:32:25;8.00;;;4.20;;
39846;SDS011;25517;52.422;10.782;2023-07-29T01:35:05;6.85;;;4.32;;
39846;SDS011;25517;52.422;10.782;2023-07-29T01:38:02;6.28;;;4.47;;
39846;SDS011;25517;52.422;10.782;2023-07-29T01:40:37;5.70;;;4.05;;
39846;SDS011;25517;52.422;10.782;2023-07-29T01:43:04;4.55;;;4.10;;
39846;SDS011;25517;52.422;10.782;2023-07-29T01:45:29;5.70;;;4.43;;
39846;SDS011;25517;52.422;10.782;2023-07-29T01:47:56;5.57;;;4.15;;
39846;SDS011;25517;52.422;10.782;2023-07-29T01:50:22;6.22;;;4.35;;
39846;SDS011;25517;52.422;10.782;2023-07-29T01:52:47;4.95;;;4.45;;
39846;SDS011;25517;52.422;10.782;2023-07-29T01:55:13;5.28;;;4.18;;
39846;SDS011;25517;52.422;10.782;2023-07-29T01:57:38;5.93;;;3.95;;
39846;SDS011;25517;52.422;10.782;2023-07-29T02:00:04;7.57;;;3.55;;
39846;SDS011;25517;52.422;10.782;2023-07-29T02:02:30;4.00;;;3.60;;
39846;SDS011;25517;52.422;10.782;2023-07-29T02:04:56;4.57;;;3.83;;
39846;SDS011;25517;52.422;10.782;2023-07-29T02:07:21;4.47;;;3.45;;
39846;SDS011;25517;52.422;10.782;2023-07-29T02:09:47;4.07;;;3.40;;
39846;SDS011;25517;52.422;10.782;2023-07-29T02:12:12;3.80;;;3.47;;
39846;SDS011;25517;52.422;10.782;2023-07-29T02:14:38;4.32;;;3.92;;
39846;SDS011;25517;52.422;10.782;2023-07-29T02:17:03;3.67;;;3.33;;
39846;SDS011;25517;52.422;10.782;2023-07-29T02:19:29;3.63;;;3.05;;
39846;SDS011;25517;52.422;10.782;2023-07-29T02:21:54;4.40;;;4.00;;
39846;SDS011;25517;52.422;10.782;2023-07-29T02:24:20;6.65;;;3.88;;
39846;SDS011;25517;52.422;10.782;2023-07-29T02:26:45;4.70;;;3.55;;
39846;SDS011;25517;52.422;10.782;2023-07-29T02:29:11;4.00;;;3.45;;
39846;SDS011;25517;52.422;10.782;2023-07-29T02:31:36;6.32;;;3.72;;
39846;SDS011;25517;52.422;10.782;2023-07-29T02:34:03;3.78;;;3.40;;
39846;SDS011;25517;52.422;10.782;2023-07-29T02:36:29;4.30;;;3.90;;
39846;SDS011;25517;52.422;10.782;2023-07-29T02:38:54;5.13;;;3.60;;
39846;SDS011;25517;52.422;10.782;2023-07-29T02:41:20;4.20;;;3.80;;
39846;SDS011;25517;52.422;10.782;2023-07-29T02:43:48;4.15;;;3.65;;
39846;SDS011;25517;52.422;10.782;2023-07-29T02:46:15;5.15;;;4.00;;
39846;SDS011;25517;52.422;10.782;2023-07-29T02:48:41;6.18;;;3.72;;
39846;SDS011;25517;52.422;10.782;2023-07-29T02:51:07;4.93;;;4.38;;
39846;SDS011;25517;52.422;10.782;2023-07-29T02:53:33;3.90;;;3.17;;
39846;SDS011;25517;52.422;10.782;2023-07-29T02:56:01;6.30;;;3.40;;
39846;SDS011;25517;52.422;10.782;2023-07-29T02:58:27;3.72;;;3.42;;
39846;SDS011;25517;52.422;10.782;2023-07-29T03:00:52;5.80;;;3.72;;
39846;SDS011;25517;52.422;10.782;2023-07-29T03:03:18;3.83;;;3.47;;
39846;SDS011;25517;52.422;10.782;2023-07-29T03:05:44;4.82;;;3.67;;
39846;SDS011;25517;52.422;10.782;2023-07-29T03:08:10;5.57;;;3.60;;
39846;SDS011;25517;52.422;10.782;2023-07-29T03:10:35;3.60;;;3.30;;
39846;SDS011;25517;52.422;10.782;2023-07-29T03:13:01;4.63;;;3.20;;
39846;SDS011;25517;52.422;10.782;2023-07-29T03:15:27;3.65;;;3.35;;
39846;SDS011;25517;52.422;10.782;2023-07-29T03:17:52;8.00;;;4.07;;
39846;SDS011;25517;52.422;10.782;2023-07-29T03:20:19;3.80;;;3.47;;
39846;SDS011;25517;52.422;10.782;2023-07-29T03:22:45;4.75;;;3.50;;
39846;SDS011;25517;52.422;10.782;2023-07-29T03:25:10;4.28;;;3.88;;
39846;SDS011;25517;52.422;10.782;2023-07-29T03:27:36;5.40;;;4.13;;
39846;SDS011;25517;52.422;10.782;2023-07-29T03:30:02;6.60;;;3.80;;
39846;SDS011;25517;52.422;10.782;2023-07-29T03:32:28;4.38;;;3.85;;
39846;SDS011;25517;52.422;10.782;2023-07-29T03:34:54;4.82;;;3.90;;
39846;SDS011;25517;52.422;10.782;2023-07-29T03:37:19;5.68;;;3.80;;
39846;SDS011;25517;52.422;10.782;2023-07-29T03:39:46;4.55;;;3.40;;
39846;SDS011;25517;52.422;10.782;2023-07-29T03:42:12;5.30;;;3.55;;
39846;SDS011;25517;52.422;10.782;2023-07-29T03:44:38;4.65;;;4.05;;
39846;SDS011;25517;52.422;10.782;2023-07-29T03:47:04;5.03;;;4.28;;
39846;SDS011;25517;52.422;10.782;2023-07-29T03:49:30;4.43;;;4.03;;
39846;SDS011;25517;52.422;10.782;2023-07-29T03:51:56;4.65;;;3.92;;
39846;SDS011;25517;52.422;10.782;2023-07-29T03:54:21;4.25;;;3.80;;
39846;SDS011;25517;52.422;10.782;2023-07-29T03:56:47;3.67;;;3.38;;
39846;SDS011;25517;52.422;10.782;2023-07-29T03:59:13;4.38;;;3.08;;
39846;SDS011;25517;52.422;10.782;2023-07-29T04:01:38;3.45;;;3.15;;
39846;SDS011;25517;52.422;10.782;2023-07-29T04:04:04;6.90;;;3.53;;
39846;SDS011;25517;52.422;10.782;2023-07-29T04:06:30;6.75;;;3.28;;
39846;SDS011;25517;52.422;10.782;2023-07-29T04:08:55;3.45;;;3.15;;
39846;SDS011;25517;52.422;10.782;2023-07-29T04:11:22;3.13;;;2.83;;
39846;SDS011;25517;52.422;10.782;2023-07-29T04:13:48;5.82;;;3.15;;
39846;SDS011;25517;52.422;10.782;2023-07-29T04:16:13;6.93;;;3.50;;
39846;SDS011;25517;52.422;10.782;2023-07-29T04:18:39;3.28;;;2.97;;
39846;SDS011;25517;52.422;10.782;2023-07-29T04:21:04;4.65;;;3.20;;
39846;SDS011;25517;52.422;10.782;2023-07-29T04:23:30;4.28;;;3.00;;
39846;SDS011;25517;52.422;10.782;2023-07-29T04:25:55;3.90;;;3.13;;
39846;SDS011;25517;52.422;10.782;2023-07-29T04:28:21;3.35;;;2.88;;
39846;SDS011;25517;52.422;10.782;2023-07-29T04:30:46;4.05;;;3.10;;
39846;SDS011;25517;52.422;10.782;2023-07-29T04:33:12;4.53;;;3.33;;
39846;SDS011;25517;52.422;10.782;2023-07-29T04:35:37;3.50;;;2.95;;
39846;SDS011;25517;52.422;10.782;2023-07-29T04:38:03;5.30;;;3.28;;
39846;SDS011;25517;52.422;10.782;2023-07-29T04:40:28;4.13;;;3.17;;
39846;SDS011;25517;52.422;10.782;2023-07-29T04:42:54;3.17;;;2.70;;
39846;SDS011;25517;52.422;10.782;2023-07-29T04:45:19;3.50;;;2.72;;
39846;SDS011;25517;52.422;10.782;2023-07-29T04:47:45;3.92;;;2.90;;
39846;SDS011;25517;52.422;10.782;2023-07-29T04:50:10;3.08;;;2.78;;
39846;SDS011;25517;52.422;10.782;2023-07-29T04:52:36;3.28;;;2.80;;
39846;SDS011;25517;52.422;10.782;2023-07-29T04:55:01;3.30;;;2.50;;
39846;SDS011;25517;52.422;10.782;2023-07-29T04:57:27;2.70;;;2.50;;
39846;SDS011;25517;52.422;10.782;2023-07-29T04:59:54;3.00;;;2.70;;
39846;SDS011;25517;52.422;10.782;2023-07-29T05:02:19;3.65;;;2.50;;
39846;SDS011;25517;52.422;10.782;2023-07-29T05:04:46;3.95;;;3.03;;
39846;SDS011;25517;52.422;10.782;2023-07-29T05:07:11;4.10;;;2.58;;
39846;SDS011;25517;52.422;10.782;2023-07-29T05:09:37;5.38;;;2.60;;
39846;SDS011;25517;52.422;10.782;2023-07-29T05:12:02;2.80;;;2.60;;
39846;SDS011;25517;52.422;10.782;2023-07-29T05:14:28;2.25;;;2.05;;
39846;SDS011;25517;52.422;10.782;2023-07-29T05:16:54;3.22;;;2.63;;
39846;SDS011;25517;52.422;10.782;2023-07-29T05:19:19;3.10;;;2.55;;
39846;SDS011;25517;52.422;10.782;2023-07-29T05:21:45;3.95;;;2.63;;
39846;SDS011;25517;52.422;10.782;2023-07-29T05:24:10;3.45;;;2.78;;
39846;SDS011;25517;52.422;10.782;2023-07-29T05:26:36;3.22;;;2.33;;
39846;SDS011;25517;52.422;10.782;2023-07-29T05:29:01;2.53;;;2.33;;
39846;SDS011;25517;52.422;10.782;2023-07-29T05:31:27;4.68;;;2.47;;
39846;SDS011;25517;52.422;10.782;2023-07-29T05:33:52;2.92;;;2.70;;
39846;SDS011;25517;52.422;10.782;2023-07-29T05:36:18;2.72;;;2.50;;
39846;SDS011;25517;52.422;10.782;2023-07-29T05:38:43;4.15;;;2.55;;
39846;SDS011;25517;52.422;10.782;2023-07-29T05:41:09;2.90;;;2.70;;
39846;SDS011;25517;52.422;10.782;2023-07-29T05:43:34;2.15;;;1.95;;
39846;SDS011;25517;52.422;10.782;2023-07-29T05:46:00;3.00;;;2.80;;
39846;SDS011;25517;52.422;10.782;2023-07-29T05:48:25;3.92;;;2.40;;
39846;SDS011;25517;52.422;10.782;2023-07-29T05:50:51;5.07;;;2.63;;
39846;SDS011;25517;52.422;10.782;2023-07-29T05:53:16;2.67;;;2.40;;
39846;SDS011;25517;52.422;10.782;2023-07-29T05:55:42;3.28;;;2.75;;
39846;SDS011;25517;52.422;10.782;2023-07-29T05:58:08;4.88;;;2.58;;
39846;SDS011;25517;52.422;10.782;2023-07-29T06:00:34;2.65;;;2.35;;
39846;SDS011;25517;52.422;10.782;2023-07-29T06:02:59;3.35;;;2.28;;
39846;SDS011;25517;52.422;10.782;2023-07-29T06:05:25;2.67;;;2.40;;
39846;SDS011;25517;52.422;10.782;2023-07-29T06:07:50;5.15;;;2.05;;
39846;SDS011;25517;52.422;10.782;2023-07-29T06:10:16;2.67;;;2.38;;
39846;SDS011;25517;52.422;10.782;2023-07-29T06:12:45;2.28;;;2.08;;
39846;SDS011;25517;52.422;10.782;2023-07-29T06:15:11;2.45;;;2.22;;
39846;SDS011;25517;52.422;10.782;2023-07-29T06:17:37;2.83;;;2.08;;
39846;SDS011;25517;52.422;10.782;2023-07-29T06:20:03;2.55;;;2.15;;
39846;SDS011;25517;52.422;10.782;2023-07-29T06:22:29;2.90;;;2.08;;
39846;SDS011;25517;52.422;10.782;2023-07-29T06:24:55;2.47;;;2.20;;
39846;SDS011;25517;52.422;10.782;2023-07-29T06:27:20;2.30;;;2.10;;
39846;SDS011;25517;52.422;10.782;2023-07-29T06:29:46;2.47;;;2.28;;
39846;SDS011;25517;52.422;10.782;2023-07-29T06:32:11;3.00;;;2.28;;
39846;SDS011;25517;52.422;10.782;2023-07-29T06:34:37;2.75;;;2.15;;
39846;SDS011;25517;52.422;10.782;2023-07-29T06:37:02;2.55;;;2.35;;
39846;SDS011;25517;52.422;10.782;2023-07-29T06:39:28;3.22;;;2.42;;
39846;SDS011;25517;52.422;10.782;2023-07-29T06:41:53;3.67;;;2.47;;
39846;SDS011;25517;52.422;10.782;2023-07-29T06:44:18;2.83;;;2.50;;
39846;SDS011;25517;52.422;10.782;2023-07-29T06:46:44;4.57;;;2.50;;
39846;SDS011;25517;52.422;10.782;2023-07-29T06:49:10;2.95;;;2.65;;
39846;SDS011;25517;52.422;10.782;2023-07-29T06:51:35;4.18;;;3.00;;
39846;SDS011;25517;52.422;10.782;2023-07-29T06:54:01;3.85;;;2.72;;
39846;SDS011;25517;52.422;10.782;2023-07-29T06:56:27;4.47;;;3.33;;
39846;SDS011;25517;52.422;10.782;2023-07-29T06:58:53;3.97;;;3.15;;
39846;SDS011;25517;52.422;10.782;2023-07-29T07:01:18;5.50;;;3.15;;
39846;SDS011;25517;52.422;10.782;2023-07-29T07:03:44;4.00;;;3.28;;
39846;SDS011;25517;52.422;10.782;2023-07-29T07:06:09;4.57;;;3.45;;
39846;SDS011;25517;52.422;10.782;2023-07-29T07:08:35;5.55;;;3.70;;
39846;SDS011;25517;52.422;10.782;2023-07-29T07:11:00;4.35;;;3.55;;
39846;SDS011;25517;52.422;10.782;2023-07-29T07:13:26;10.90;;;4.50;;
39846;SDS011;25517;52.422;10.782;2023-07-29T07:15:56;5.15;;;3.80;;
39846;SDS011;25517;52.422;10.782;2023-07-29T07:18:22;5.20;;;3.80;;
39846;SDS011;25517;52.422;10.782;2023-07-29T07:20:51;9.60;;;4.60;;
39846;SDS011;25517;52.422;10.782;2023-07-29T07:23:17;5.63;;;4.93;;
39846;SDS011;25517;52.422;10.782;2023-07-29T07:25:43;5.82;;;4.75;;
39846;SDS011;25517;52.422;10.782;2023-07-29T07:28:09;5.38;;;4.50;;
39846;SDS011;25517;52.422;10.782;2023-07-29T07:30:34;6.55;;;4.95;;
39846;SDS011;25517;52.422;10.782;2023-07-29T07:33:00;7.70;;;6.20;;
39846;SDS011;25517;52.422;10.782;2023-07-29T07:35:26;9.80;;;6.63;;
39846;SDS011;25517;52.422;10.782;2023-07-29T07:37:51;9.50;;;6.40;;
39846;SDS011;25517;52.422;10.782;2023-07-29T07:40:17;11.15;;;6.43;;
39846;SDS011;25517;52.422;10.782;2023-07-29T07:42:42;7.70;;;6.45;;
39846;SDS011;25517;52.422;10.782;2023-07-29T07:45:08;7.65;;;6.57;;
39846;SDS011;25517;52.422;10.782;2023-07-29T07:47:34;9.00;;;7.45;;
39846;SDS011;25517;52.422;10.782;2023-07-29T07:49:59;6.95;;;6.25;;
39846;SDS011;25517;52.422;10.782;2023-07-29T07:52:25;7.78;;;6.60;;
39846;SDS011;25517;52.422;10.782;2023-07-29T07:54:53;8.88;;;7.15;;
39846;SDS011;25517;52.422;10.782;2023-07-29T07:57:22;7.35;;;6.20;;
39846;SDS011;25517;52.422;10.782;2023-07-29T07:59:48;8.55;;;6.75;;
39846;SDS011;25517;52.422;10.782;2023-07-29T08:02:14;6.40;;;5.80;;
39846;SDS011;25517;52.422;10.782;2023-07-29T08:04:39;6.38;;;5.68;;
39846;SDS011;25517;52.422;10.782;2023-07-29T08:07:05;6.90;;;5.30;;
39846;SDS011;25517;52.422;10.782;2023-07-29T08:09:30;6.43;;;5.05;;
39846;SDS011;25517;52.422;10.782;2023-07-29T08:11:56;5.55;;;5.05;;
39846;SDS011;25517;52.422;10.782;2023-07-29T08:14:21;6.18;;;5.32;;
39846;SDS011;25517;52.422;10.782;2023-07-29T08:16:47;5.03;;;4.57;;
39846;SDS011;25517;52.422;10.782;2023-07-29T08:19:12;4.43;;;3.95;;
39846;SDS011;25517;52.422;10.782;2023-07-29T08:21:38;5.70;;;3.90;;
39846;SDS011;25517;52.422;10.782;2023-07-29T08:24:03;5.65;;;4.20;;
39846;SDS011;25517;52.422;10.782;2023-07-29T08:26:29;5.50;;;3.72;;
39846;SDS011;25517;52.422;10.782;2023-07-29T08:28:55;5.15;;;3.28;;
39846;SDS011;25517;52.422;10.782;2023-07-29T08:31:20;4.97;;;3.83;;
39846;SDS011;25517;52.422;10.782;2023-07-29T08:33:46;3.65;;;3.20;;
39846;SDS011;25517;52.422;10.782;2023-07-29T08:36:11;3.95;;;3.55;;
39846;SDS011;25517;52.422;10.782;2023-07-29T08:38:37;3.63;;;3.33;;
39846;SDS011;25517;52.422;10.782;2023-07-29T08:44:23;3.42;;;3.13;;
39846;SDS011;25517;52.422;10.782;2023-07-29T08:46:51;2.50;;;2.30;;
39846;SDS011;25517;52.422;10.782;2023-07-29T08:49:19;3.10;;;2.80;;
39846;SDS011;25517;52.422;10.782;2023-07-29T08:51:47;3.28;;;2.63;;
39846;SDS011;25517;52.422;10.782;2023-07-29T08:54:14;2.60;;;2.33;;
39846;SDS011;25517;52.422;10.782;2023-07-29T08:56:40;3.53;;;2.50;;
39846;SDS011;25517;52.422;10.782;2023-07-29T08:59:06;2.97;;;2.42;;
39846;SDS011;25517;52.422;10.782;2023-07-29T09:01:33;3.30;;;2.30;;
39846;SDS011;25517;52.422;10.782;2023-07-29T09:03:58;2.55;;;2.35;;
39846;SDS011;25517;52.422;10.782;2023-07-29T09:06:24;2.35;;;2.15;;
39846;SDS011;25517;52.422;10.782;2023-07-29T09:08:51;2.90;;;2.30;;
39846;SDS011;25517;52.422;10.782;2023-07-29T09:11:17;3.30;;;3.00;;
39846;SDS011;25517;52.422;10.782;2023-07-29T09:13:44;2.83;;;2.50;;
39846;SDS011;25517;52.422;10.782;2023-07-29T09:16:09;2.42;;;2.10;;
39846;SDS011;25517;52.422;10.782;2023-07-29T09:18:35;2.33;;;2.13;;
39846;SDS011;25517;52.422;10.782;2023-07-29T09:21:02;2.05;;;1.85;;
39846;SDS011;25517;52.422;10.782;2023-07-29T09:23:27;1.83;;;1.60;;
39846;SDS011;25517;52.422;10.782;2023-07-29T09:26:02;2.65;;;1.88;;
39846;SDS011;25517;52.422;10.782;2023-07-29T09:28:32;2.05;;;1.80;;
39846;SDS011;25517;52.422;10.782;2023-07-29T09:31:02;4.57;;;1.85;;
39846;SDS011;25517;52.422;10.782;2023-07-29T09:33:34;2.13;;;1.92;;
39846;SDS011;25517;52.422;10.782;2023-07-29T09:36:08;1.92;;;1.73;;
39846;SDS011;25517;52.422;10.782;2023-07-29T09:38:35;2.47;;;2.28;;
39846;SDS011;25517;52.422;10.782;2023-07-29T09:41:01;2.97;;;1.95;;
39846;SDS011;25517;52.422;10.782;2023-07-29T09:43:30;2.33;;;2.10;;
39846;SDS011;25517;52.422;10.782;2023-07-29T09:46:03;2.78;;;2.05;;
39846;SDS011;25517;52.422;10.782;2023-07-29T09:48:36;2.25;;;2.05;;
39846;SDS011;25517;52.422;10.782;2023-07-29T09:51:13;2.55;;;1.95;;
39846;SDS011;25517;52.422;10.782;2023-07-29T09:53:42;2.28;;;1.80;;
39846;SDS011;25517;52.422;10.782;2023-07-29T09:56:09;3.53;;;2.03;;
39846;SDS011;25517;52.422;10.782;2023-07-29T09:58:35;2.88;;;1.85;;
39846;SDS011;25517;52.422;10.782;2023-07-29T10:01:03;4.28;;;1.98;;
39846;SDS011;25517;52.422;10.782;2023-07-29T10:03:32;2.80;;;1.80;;
39846;SDS011;25517;52.422;10.782;2023-07-29T10:06:02;2.88;;;1.58;;
39846;SDS011;25517;52.422;10.782;2023-07-29T10:08:32;1.95;;;1.42;;
39846;SDS011;25517;52.422;10.782;2023-07-29T10:11:03;2.35;;;1.63;;
39846;SDS011;25517;52.422;10.782;2023-07-29T10:13:31;2.25;;;1.80;;
39846;SDS011;25517;52.422;10.782;2023-07-29T10:15:58;1.90;;;1.70;;
39846;SDS011;25517;52.422;10.782;2023-07-29T10:18:27;2.30;;;2.08;;
39846;SDS011;25517;52.422;10.782;2023-07-29T10:20:53;4.88;;;2.30;;
39846;SDS011;25517;52.422;10.782;2023-07-29T10:23:21;4.15;;;3.03;;
39846;SDS011;25517;52.422;10.782;2023-07-29T10:26:10;5.85;;;2.92;;
39846;SDS011;25517;52.422;10.782;2023-07-29T10:28:36;6.03;;;3.00;;
39846;SDS011;25517;52.422;10.782;2023-07-29T10:31:04;3.83;;;2.50;;
39846;SDS011;25517;52.422;10.782;2023-07-29T10:33:31;3.67;;;2.40;;
39846;SDS011;25517;52.422;10.782;2023-07-29T10:35:58;5.15;;;3.13;;
39846;SDS011;25517;52.422;10.782;2023-07-29T10:38:24;3.45;;;2.90;;
39846;SDS011;25517;52.422;10.782;2023-07-29T10:40:54;3.83;;;2.72;;
39846;SDS011;25517;52.422;10.782;2023-07-29T10:43:32;4.45;;;2.10;;
39846;SDS011;25517;52.422;10.782;2023-07-29T10:46:14;2.95;;;1.92;;
39846;SDS011;25517;52.422;10.782;2023-07-29T10:54:13;2.60;;;1.60;;
39846;SDS011;25517;52.422;10.782;2023-07-29T10:56:40;1.70;;;1.40;;
39846;SDS011;25517;52.422;10.782;2023-07-29T11:01:37;2.22;;;2.03;;
39846;SDS011;25517;52.422;10.782;2023-07-29T11:04:47;1.70;;;1.52;;
39846;SDS011;25517;52.422;10.782;2023-07-29T11:07:18;2.88;;;1.50;;
39846;SDS011;25517;52.422;10.782;2023-07-29T11:17:34;2.20;;;2.00;;
39846;SDS011;25517;52.422;10.782;2023-07-29T11:20:00;5.30;;;2.33;;
39846;SDS011;25517;52.422;10.782;2023-07-29T11:22:28;2.40;;;2.17;;
39846;SDS011;25517;52.422;10.782;2023-07-29T11:24:54;4.70;;;1.67;;
39846;SDS011;25517;52.422;10.782;2023-07-29T11:27:19;2.55;;;1.60;;
39846;SDS011;25517;52.422;10.782;2023-07-29T11:29:46;1.70;;;1.60;;
39846;SDS011;25517;52.422;10.782;2023-07-29T11:32:12;2.17;;;1.83;;
39846;SDS011;25517;52.422;10.782;2023-07-29T11:34:38;3.22;;;1.80;;
39846;SDS011;25517;52.422;10.782;2023-07-29T11:37:05;1.88;;;1.77;;
39846;SDS011;25517;52.422;10.782;2023-07-29T11:39:31;2.08;;;1.98;;
39846;SDS011;25517;52.422;10.782;2023-07-29T11:41:57;2.33;;;1.98;;
39846;SDS011;25517;52.422;10.782;2023-07-29T11:44:24;1.70;;;1.60;;
39846;SDS011;25517;52.422;10.782;2023-07-29T11:46:50;5.32;;;2.13;;
39846;SDS011;25517;52.422;10.782;2023-07-29T11:49:15;1.98;;;1.75;;
39846;SDS011;25517;52.422;10.782;2023-07-29T11:51:41;3.28;;;1.65;;
39846;SDS011;25517;52.422;10.782;2023-07-29T11:54:08;2.20;;;2.00;;
39846;SDS011;25517;52.422;10.782;2023-07-29T11:56:33;2.20;;;2.00;;
39846;SDS011;25517;52.422;10.782;2023-07-29T11:59:00;2.72;;;2.00;;
39846;SDS011;25517;52.422;10.782;2023-07-29T12:01:27;3.95;;;2.38;;
39846;SDS011;25517;52.422;10.782;2023-07-29T12:03:53;3.53;;;3.15;;
39846;SDS011;25517;52.422;10.782;2023-07-29T12:06:20;4.75;;;3.20;;
39846;SDS011;25517;52.422;10.782;2023-07-29T12:08:47;5.50;;;3.83;;
39846;SDS011;25517;52.422;10.782;2023-07-29T12:11:12;11.55;;;5.32;;
39846;SDS011;25517;52.422;10.782;2023-07-29T12:13:41;13.63;;;7.03;;
39846;SDS011;25517;52.422;10.782;2023-07-29T12:16:07;8.65;;;7.72;;
39846;SDS011;25517;52.422;10.782;2023-07-29T12:18:32;12.48;;;8.45;;
39846;SDS011;25517;52.422;10.782;2023-07-29T12:20:58;10.23;;;9.20;;
39846;SDS011;25517;52.422;10.782;2023-07-29T12:23:25;10.98;;;9.88;;
39846;SDS011;25517;52.422;10.782;2023-07-29T12:25:51;15.05;;;12.85;;
39846;SDS011;25517;52.422;10.782;2023-07-29T12:28:22;17.75;;;14.63;;
39846;SDS011;25517;52.422;10.782;2023-07-29T12:30:48;16.80;;;12.80;;
39846;SDS011;25517;52.422;10.782;2023-07-29T12:33:36;13.98;;;12.43;;
39846;SDS011;25517;52.422;10.782;2023-07-29T12:36:07;16.58;;;13.45;;
39846;SDS011;25517;52.422;10.782;2023-07-29T12:38:33;13.20;;;11.80;;
39846;SDS011;25517;52.422;10.782;2023-07-29T12:40:58;11.75;;;10.55;;
39846;SDS011;25517;52.422;10.782;2023-07-29T12:43:24;13.32;;;11.10;;
39846;SDS011;25517;52.422;10.782;2023-07-29T12:45:50;12.32;;;10.75;;
39846;SDS011;25517;52.422;10.782;2023-07-29T12:48:17;14.90;;;12.20;;
39846;SDS011;25517;52.422;10.782;2023-07-29T12:50:42;14.18;;;11.70;;
39846;SDS011;25517;52.422;10.782;2023-07-29T12:53:09;16.17;;;12.95;;
39846;SDS011;25517;52.422;10.782;2023-07-29T12:55:37;16.20;;;13.65;;
39846;SDS011;25517;52.422;10.782;2023-07-29T12:58:03;14.25;;;12.70;;
39846;SDS011;25517;52.422;10.782;2023-07-29T13:00:29;16.10;;;12.95;;
39846;SDS011;25517;52.422;10.782;2023-07-29T13:02:54;16.00;;;12.27;;
39846;SDS011;25517;52.422;10.782;2023-07-29T13:05:20;10.52;;;9.45;;
39846;SDS011;25517;52.422;10.782;2023-07-29T13:07:45;10.20;;;8.63;;
39846;SDS011;25517;52.422;10.782;2023-07-29T13:10:11;9.40;;;8.27;;
39846;SDS011;25517;52.422;10.782;2023-07-29T13:12:37;8.07;;;7.30;;
39846;SDS011;25517;52.422;10.782;2023-07-29T13:15:03;7.78;;;6.97;;
39846;SDS011;25517;52.422;10.782;2023-07-29T13:17:29;6.65;;;6.05;;
39846;SDS011;25517;52.422;10.782;2023-07-29T13:19:55;6.90;;;6.30;;
39846;SDS011;25517;52.422;10.782;2023-07-29T13:22:20;7.85;;;6.90;;
39846;SDS011;25517;52.422;10.782;2023-07-29T13:24:46;6.93;;;6.32;;
39846;SDS011;25517;52.422;10.782;2023-07-29T13:27:12;7.20;;;6.47;;
39846;SDS011;25517;52.422;10.782;2023-07-29T13:29:37;6.50;;;5.82;;
39846;SDS011;25517;52.422;10.782;2023-07-29T13:32:04;6.80;;;6.20;;
39846;SDS011;25517;52.422;10.782;2023-07-29T13:34:30;6.57;;;5.90;;
39846;SDS011;25517;52.422;10.782;2023-07-29T13:36:55;4.75;;;4.25;;
39846;SDS011;25517;52.422;10.782;2023-07-29T13:39:21;3.92;;;3.42;;
39846;SDS011;25517;52.422;10.782;2023-07-29T13:41:46;3.70;;;2.90;;
39846;SDS011;25517;52.422;10.782;2023-07-29T13:44:12;3.75;;;2.40;;
39846;SDS011;25517;52.422;10.782;2023-07-29T13:46:37;3.80;;;2.50;;
39846;SDS011;25517;52.422;10.782;2023-07-29T13:49:03;2.28;;;1.95;;
39846;SDS011;25517;52.422;10.782;2023-07-29T13:51:28;1.98;;;1.70;;
39846;SDS011;25517;52.422;10.782;2023-07-29T13:53:54;1.67;;;1.58;;
39846;SDS011;25517;52.422;10.782;2023-07-29T13:56:21;2.55;;;1.75;;
39846;SDS011;25517;52.422;10.782;2023-07-29T13:58:46;2.00;;;1.77;;
39846;SDS011;25517;52.422;10.782;2023-07-29T14:01:12;2.15;;;1.40;;
39846;SDS011;25517;52.422;10.782;2023-07-29T14:03:37;1.65;;;1.55;;
39846;SDS011;25517;52.422;10.782;2023-07-29T14:06:03;1.98;;;1.42;;
39846;SDS011;25517;52.422;10.782;2023-07-29T14:08:28;1.42;;;1.33;;
39846;SDS011;25517;52.422;10.782;2023-07-29T14:10:54;1.40;;;1.30;;
39846;SDS011;25517;52.422;10.782;2023-07-29T14:13:19;1.20;;;1.10;;
39846;SDS011;25517;52.422;10.782;2023-07-29T14:15:45;1.67;;;1.20;;
39846;SDS011;25517;52.422;10.782;2023-07-29T14:18:10;2.60;;;1.30;;
39846;SDS011;25517;52.422;10.782;2023-07-29T14:20:36;2.35;;;1.40;;
39846;SDS011;25517;52.422;10.782;2023-07-29T14:23:01;2.88;;;1.27;;
39846;SDS011;25517;52.422;10.782;2023-07-29T14:25:27;1.42;;;1.10;;
39846;SDS011;25517;52.422;10.782;2023-07-29T14:27:52;1.67;;;1.52;;
39846;SDS011;25517;52.422;10.782;2023-07-29T14:30:18;2.35;;;1.30;;
39846;SDS011;25517;52.422;10.782;2023-07-29T14:32:44;1.20;;;1.10;;
39846;SDS011;25517;52.422;10.782;2023-07-29T14:35:09;5.15;;;1.10;;
39846;SDS011;25517;52.422;10.782;2023-07-29T14:37:35;1.20;;;1.08;;
39846;SDS011;25517;52.422;10.782;2023-07-29T14:40:01;1.55;;;1.45;;
39846;SDS011;25517;52.422;10.782;2023-07-29T14:42:26;1.08;;;0.88;;
39846;SDS011;25517;52.422;10.782;2023-07-29T14:44:52;1.35;;;1.05;;
39846;SDS011;25517;52.422;10.782;2023-07-29T14:47:19;1.90;;;1.25;;
39846;SDS011;25517;52.422;10.782;2023-07-29T14:49:44;1.17;;;0.93;;
39846;SDS011;25517;52.422;10.782;2023-07-29T14:52:10;1.88;;;1.10;;
39846;SDS011;25517;52.422;10.782;2023-07-29T14:54:36;4.03;;;1.35;;